TKPK METAR and TAF | Updated Today

TKPK METAR

Robert L. Bradshaw International Airport

Observation time: 7:13 hr. ago

TKPK 060100Z 09014KT 9999 FEW020 26/22 Q1018

Need help? Read our tutorial on how to read METARs or read the parsed version below.

Robert L. Bradshaw International Airport (TKPK) METAR

  • Weather conditions on Mon, 06 Dec 2021 01:00:00 +0000 (7:13 hr. ago):
  • Present conditions: Dry
  • Clouds: A few at 610 meters
  • Visibility: Greater than 10 km
  • Wind: 90 degrees at 14 knots
  • Temperature: 26 celsius
  • Dew point: 22 celsius
  • Pressure: 1018 millibars
  • Remarks: None


Useful to know...

TKPK TAF

Robert L. Bradshaw International Airport

TKPK 060525Z 0606/0706 08012KT P6SM VCSH SCT018 SCT035 FM061430 07010KT P6SM SCT022 FM062200 08013KT P6SM VCSH SCT025 AMD NOT SKED TIL 061100
Observation time: 2:48 hr. ago
Need help? Read our tutorial on how to read TAFs or read the parsed version below.

Parsed version of TAF for Robert L. Bradshaw International Airport (TKPK)

  • From 06 December at 06:00 UTC, to day 07 of the month at 06:00 UTC
  • Clouds: Scattered at 549 meters; scattered at 1067 meters
  • Wind: 80 degrees at 12
  • Other: In the vicinity, showers of
  • From day 6 of the month at 14:30 UTC
  • Clouds: Scattered at 671 meters
  • Wind: 70 degrees at 10
  • From day 6 of the month at 22:00 UTC
  • Clouds: Scattered at 762 meters
  • Wind: 80 degrees at 13
  • Other: In the vicinity, showers of